sensor_id;sensor_type;location;lat;lon;timestamp;P1;durP1;ratioP1;P2;durP2;ratioP2
1136;SDS011;557;48.466;7.950;2023-11-21T00:01:02;4.30;;;2.40;;
1136;SDS011;557;48.466;7.950;2023-11-21T00:03:31;5.93;;;1.60;;
1136;SDS011;557;48.466;7.950;2023-11-21T00:05:58;6.10;;;2.70;;
1136;SDS011;557;48.466;7.950;2023-11-21T00:08:25;2.90;;;1.60;;
1136;SDS011;557;48.466;7.950;2023-11-21T00:10:52;5.73;;;1.90;;
1136;SDS011;557;48.466;7.950;2023-11-21T00:13:20;7.80;;;2.90;;
1136;SDS011;557;48.466;7.950;2023-11-21T00:15:46;5.07;;;1.90;;
1136;SDS011;557;48.466;7.950;2023-11-21T00:18:14;6.83;;;2.47;;
1136;SDS011;557;48.466;7.950;2023-11-21T00:20:43;3.67;;;2.03;;
1136;SDS011;557;48.466;7.950;2023-11-21T00:23:10;6.90;;;1.60;;
1136;SDS011;557;48.466;7.950;2023-11-21T00:25:37;9.37;;;2.50;;
1136;SDS011;557;48.466;7.950;2023-11-21T00:28:05;3.47;;;1.70;;
1136;SDS011;557;48.466;7.950;2023-11-21T00:30:32;7.37;;;2.73;;
1136;SDS011;557;48.466;7.950;2023-11-21T00:32:59;4.97;;;1.70;;
1136;SDS011;557;48.466;7.950;2023-11-21T00:35:26;5.97;;;1.43;;
1136;SDS011;557;48.466;7.950;2023-11-21T00:37:54;3.70;;;1.97;;
1136;SDS011;557;48.466;7.950;2023-11-21T00:40:21;3.50;;;1.33;;
1136;SDS011;557;48.466;7.950;2023-11-21T00:42:48;4.90;;;2.03;;
1136;SDS011;557;48.466;7.950;2023-11-21T00:45:15;10.53;;;1.90;;
1136;SDS011;557;48.466;7.950;2023-11-21T00:47:42;5.23;;;1.37;;
1136;SDS011;557;48.466;7.950;2023-11-21T00:50:09;7.80;;;1.50;;
1136;SDS011;557;48.466;7.950;2023-11-21T00:52:36;8.60;;;1.90;;
1136;SDS011;557;48.466;7.950;2023-11-21T00:55:05;10.30;;;1.80;;
1136;SDS011;557;48.466;7.950;2023-11-21T00:57:32;5.87;;;2.00;;
1136;SDS011;557;48.466;7.950;2023-11-21T00:59:59;3.87;;;1.80;;
1136;SDS011;557;48.466;7.950;2023-11-21T01:02:26;8.07;;;1.50;;
1136;SDS011;557;48.466;7.950;2023-11-21T01:04:54;7.67;;;1.60;;
1136;SDS011;557;48.466;7.950;2023-11-21T01:07:20;5.10;;;1.93;;
1136;SDS011;557;48.466;7.950;2023-11-21T01:09:48;5.00;;;1.33;;
1136;SDS011;557;48.466;7.950;2023-11-21T01:12:16;2.80;;;1.23;;
1136;SDS011;557;48.466;7.950;2023-11-21T01:14:44;5.23;;;1.17;;
1136;SDS011;557;48.466;7.950;2023-11-21T01:17:11;2.83;;;1.07;;
1136;SDS011;557;48.466;7.950;2023-11-21T01:19:37;4.50;;;1.30;;
1136;SDS011;557;48.466;7.950;2023-11-21T01:22:04;6.17;;;1.57;;
1136;SDS011;557;48.466;7.950;2023-11-21T01:24:31;5.37;;;1.40;;
1136;SDS011;557;48.466;7.950;2023-11-21T01:26:58;4.50;;;1.60;;
1136;SDS011;557;48.466;7.950;2023-11-21T01:29:26;4.47;;;1.23;;
1136;SDS011;557;48.466;7.950;2023-11-21T01:31:53;6.53;;;1.83;;
1136;SDS011;557;48.466;7.950;2023-11-21T01:34:20;6.33;;;1.60;;
1136;SDS011;557;48.466;7.950;2023-11-21T01:36:46;4.27;;;1.30;;
1136;SDS011;557;48.466;7.950;2023-11-21T01:39:13;6.30;;;1.70;;
1136;SDS011;557;48.466;7.950;2023-11-21T01:41:41;3.27;;;1.30;;
1136;SDS011;557;48.466;7.950;2023-11-21T01:44:10;4.10;;;1.20;;
1136;SDS011;557;48.466;7.950;2023-11-21T01:46:39;3.93;;;1.57;;
1136;SDS011;557;48.466;7.950;2023-11-21T01:49:06;6.37;;;1.83;;
1136;SDS011;557;48.466;7.950;2023-11-21T01:51:34;5.50;;;1.73;;
1136;SDS011;557;48.466;7.950;2023-11-21T01:54:03;5.93;;;1.53;;
1136;SDS011;557;48.466;7.950;2023-11-21T01:56:31;5.37;;;2.20;;
1136;SDS011;557;48.466;7.950;2023-11-21T01:58:59;2.73;;;1.67;;
1136;SDS011;557;48.466;7.950;2023-11-21T02:01:26;3.77;;;1.23;;
1136;SDS011;557;48.466;7.950;2023-11-21T02:03:54;3.13;;;1.50;;
1136;SDS011;557;48.466;7.950;2023-11-21T02:06:21;7.13;;;1.87;;
1136;SDS011;557;48.466;7.950;2023-11-21T02:08:49;7.90;;;1.43;;
1136;SDS011;557;48.466;7.950;2023-11-21T02:11:16;4.07;;;1.20;;
1136;SDS011;557;48.466;7.950;2023-11-21T02:13:44;4.27;;;1.53;;
1136;SDS011;557;48.466;7.950;2023-11-21T02:16:12;4.83;;;1.50;;
1136;SDS011;557;48.466;7.950;2023-11-21T02:18:40;4.60;;;1.40;;
1136;SDS011;557;48.466;7.950;2023-11-21T02:21:08;5.40;;;1.10;;
1136;SDS011;557;48.466;7.950;2023-11-21T02:23:36;8.80;;;1.80;;
1136;SDS011;557;48.466;7.950;2023-11-21T02:26:07;2.70;;;1.17;;
1136;SDS011;557;48.466;7.950;2023-11-21T02:28:35;3.30;;;1.40;;
1136;SDS011;557;48.466;7.950;2023-11-21T02:31:01;5.20;;;1.30;;
1136;SDS011;557;48.466;7.950;2023-11-21T02:33:29;7.50;;;1.30;;
1136;SDS011;557;48.466;7.950;2023-11-21T02:35:59;4.97;;;1.50;;
1136;SDS011;557;48.466;7.950;2023-11-21T02:38:25;4.70;;;1.63;;
1136;SDS011;557;48.466;7.950;2023-11-21T02:40:54;5.67;;;1.70;;
1136;SDS011;557;48.466;7.950;2023-11-21T02:43:21;6.90;;;1.40;;
1136;SDS011;557;48.466;7.950;2023-11-21T02:45:48;5.80;;;1.40;;
1136;SDS011;557;48.466;7.950;2023-11-21T02:48:15;2.27;;;1.20;;
1136;SDS011;557;48.466;7.950;2023-11-21T02:50:42;4.77;;;1.90;;
1136;SDS011;557;48.466;7.950;2023-11-21T02:53:09;5.73;;;2.07;;
1136;SDS011;557;48.466;7.950;2023-11-21T02:55:36;2.70;;;1.40;;
1136;SDS011;557;48.466;7.950;2023-11-21T02:58:06;2.37;;;1.07;;
1136;SDS011;557;48.466;7.950;2023-11-21T03:00:33;4.57;;;2.27;;
1136;SDS011;557;48.466;7.950;2023-11-21T03:03:00;3.67;;;1.60;;
1136;SDS011;557;48.466;7.950;2023-11-21T03:05:27;4.13;;;1.40;;
1136;SDS011;557;48.466;7.950;2023-11-21T03:07:54;2.57;;;1.17;;
1136;SDS011;557;48.466;7.950;2023-11-21T03:10:21;2.10;;;1.30;;
1136;SDS011;557;48.466;7.950;2023-11-21T03:12:48;2.07;;;1.17;;
1136;SDS011;557;48.466;7.950;2023-11-21T03:15:16;5.67;;;1.27;;
1136;SDS011;557;48.466;7.950;2023-11-21T03:17:43;4.10;;;1.43;;
1136;SDS011;557;48.466;7.950;2023-11-21T03:20:10;2.60;;;1.20;;
1136;SDS011;557;48.466;7.950;2023-11-21T03:22:38;4.90;;;1.70;;
1136;SDS011;557;48.466;7.950;2023-11-21T03:25:05;4.93;;;1.70;;
1136;SDS011;557;48.466;7.950;2023-11-21T03:27:35;6.10;;;3.10;;
1136;SDS011;557;48.466;7.950;2023-11-21T03:30:04;5.90;;;1.80;;
1136;SDS011;557;48.466;7.950;2023-11-21T03:32:34;4.00;;;1.80;;
1136;SDS011;557;48.466;7.950;2023-11-21T03:35:01;5.17;;;1.67;;
1136;SDS011;557;48.466;7.950;2023-11-21T03:37:28;3.03;;;1.30;;
1136;SDS011;557;48.466;7.950;2023-11-21T03:39:55;3.53;;;2.43;;
1136;SDS011;557;48.466;7.950;2023-11-21T03:42:22;4.03;;;1.50;;
1136;SDS011;557;48.466;7.950;2023-11-21T03:44:50;3.90;;;1.40;;
1136;SDS011;557;48.466;7.950;2023-11-21T03:47:17;3.60;;;1.43;;
1136;SDS011;557;48.466;7.950;2023-11-21T03:49:45;4.93;;;1.80;;
1136;SDS011;557;48.466;7.950;2023-11-21T03:52:12;2.80;;;1.23;;
1136;SDS011;557;48.466;7.950;2023-11-21T03:54:39;4.90;;;1.40;;
1136;SDS011;557;48.466;7.950;2023-11-21T03:57:06;5.10;;;1.37;;
1136;SDS011;557;48.466;7.950;2023-11-21T03:59:33;2.67;;;1.13;;
1136;SDS011;557;48.466;7.950;2023-11-21T04:01:59;3.83;;;1.60;;
1136;SDS011;557;48.466;7.950;2023-11-21T04:04:26;3.10;;;1.60;;
1136;SDS011;557;48.466;7.950;2023-11-21T04:06:54;6.43;;;1.97;;
1136;SDS011;557;48.466;7.950;2023-11-21T04:09:27;4.20;;;1.33;;
1136;SDS011;557;48.466;7.950;2023-11-21T04:11:54;3.93;;;1.20;;
1136;SDS011;557;48.466;7.950;2023-11-21T04:14:21;5.50;;;2.03;;
1136;SDS011;557;48.466;7.950;2023-11-21T04:16:48;10.67;;;1.60;;
1136;SDS011;557;48.466;7.950;2023-11-21T04:19:15;3.20;;;1.63;;
1136;SDS011;557;48.466;7.950;2023-11-21T04:21:42;5.97;;;1.40;;
1136;SDS011;557;48.466;7.950;2023-11-21T04:24:11;3.73;;;1.33;;
1136;SDS011;557;48.466;7.950;2023-11-21T04:26:38;6.10;;;1.43;;
1136;SDS011;557;48.466;7.950;2023-11-21T04:29:04;3.50;;;1.50;;
1136;SDS011;557;48.466;7.950;2023-11-21T04:31:31;5.50;;;1.63;;
1136;SDS011;557;48.466;7.950;2023-11-21T04:33:58;8.33;;;4.30;;
1136;SDS011;557;48.466;7.950;2023-11-21T04:36:25;4.67;;;2.40;;
1136;SDS011;557;48.466;7.950;2023-11-21T04:38:52;4.87;;;1.53;;
1136;SDS011;557;48.466;7.950;2023-11-21T04:41:20;4.20;;;1.90;;
1136;SDS011;557;48.466;7.950;2023-11-21T04:43:47;5.47;;;2.20;;
1136;SDS011;557;48.466;7.950;2023-11-21T04:48:48;4.20;;;1.37;;
1136;SDS011;557;48.466;7.950;2023-11-21T04:51:15;3.60;;;1.43;;
1136;SDS011;557;48.466;7.950;2023-11-21T04:53:42;1.70;;;1.00;;
1136;SDS011;557;48.466;7.950;2023-11-21T04:56:08;9.20;;;1.50;;
1136;SDS011;557;48.466;7.950;2023-11-21T04:58:37;7.10;;;1.60;;
1136;SDS011;557;48.466;7.950;2023-11-21T05:01:10;3.70;;;1.40;;
1136;SDS011;557;48.466;7.950;2023-11-21T05:03:37;2.73;;;1.50;;
1136;SDS011;557;48.466;7.950;2023-11-21T05:06:05;3.60;;;1.10;;
1136;SDS011;557;48.466;7.950;2023-11-21T05:08:35;5.30;;;1.87;;
1136;SDS011;557;48.466;7.950;2023-11-21T05:11:02;4.40;;;1.30;;
1136;SDS011;557;48.466;7.950;2023-11-21T05:13:29;3.67;;;1.40;;
1136;SDS011;557;48.466;7.950;2023-11-21T05:15:57;3.00;;;1.60;;
1136;SDS011;557;48.466;7.950;2023-11-21T05:18:24;4.73;;;1.53;;
1136;SDS011;557;48.466;7.950;2023-11-21T05:20:52;3.10;;;1.40;;
1136;SDS011;557;48.466;7.950;2023-11-21T05:23:19;2.00;;;1.40;;
1136;SDS011;557;48.466;7.950;2023-11-21T05:25:46;3.00;;;1.47;;
1136;SDS011;557;48.466;7.950;2023-11-21T05:28:13;5.03;;;1.40;;
1136;SDS011;557;48.466;7.950;2023-11-21T05:30:40;2.87;;;1.20;;
1136;SDS011;557;48.466;7.950;2023-11-21T05:33:08;6.10;;;1.70;;
1136;SDS011;557;48.466;7.950;2023-11-21T05:35:37;7.63;;;2.50;;
1136;SDS011;557;48.466;7.950;2023-11-21T05:38:04;7.20;;;2.03;;
1136;SDS011;557;48.466;7.950;2023-11-21T05:40:31;8.70;;;2.90;;
1136;SDS011;557;48.466;7.950;2023-11-21T05:42:59;2.97;;;1.57;;
1136;SDS011;557;48.466;7.950;2023-11-21T05:45:25;4.50;;;1.30;;
1136;SDS011;557;48.466;7.950;2023-11-21T05:47:55;4.00;;;1.60;;
1136;SDS011;557;48.466;7.950;2023-11-21T05:50:23;3.33;;;1.43;;
1136;SDS011;557;48.466;7.950;2023-11-21T05:52:50;4.90;;;1.37;;
1136;SDS011;557;48.466;7.950;2023-11-21T05:55:16;3.83;;;1.43;;
1136;SDS011;557;48.466;7.950;2023-11-21T05:57:46;6.83;;;1.70;;
1136;SDS011;557;48.466;7.950;2023-11-21T06:00:14;3.40;;;1.33;;
1136;SDS011;557;48.466;7.950;2023-11-21T06:02:45;3.47;;;1.43;;
1136;SDS011;557;48.466;7.950;2023-11-21T06:05:12;3.00;;;1.50;;
1136;SDS011;557;48.466;7.950;2023-11-21T06:07:40;10.33;;;1.93;;
1136;SDS011;557;48.466;7.950;2023-11-21T06:10:07;3.77;;;1.33;;
1136;SDS011;557;48.466;7.950;2023-11-21T06:12:36;3.13;;;1.67;;
1136;SDS011;557;48.466;7.950;2023-11-21T06:15:03;4.80;;;2.30;;
1136;SDS011;557;48.466;7.950;2023-11-21T06:17:33;4.03;;;1.60;;
1136;SDS011;557;48.466;7.950;2023-11-21T06:20:01;4.53;;;1.60;;
1136;SDS011;557;48.466;7.950;2023-11-21T06:22:34;6.80;;;2.03;;
1136;SDS011;557;48.466;7.950;2023-11-21T06:25:02;3.70;;;1.50;;
1136;SDS011;557;48.466;7.950;2023-11-21T06:27:31;6.17;;;2.27;;
1136;SDS011;557;48.466;7.950;2023-11-21T06:29:57;2.73;;;1.90;;
1136;SDS011;557;48.466;7.950;2023-11-21T06:32:24;8.33;;;1.83;;
1136;SDS011;557;48.466;7.950;2023-11-21T06:34:51;6.00;;;1.60;;
1136;SDS011;557;48.466;7.950;2023-11-21T06:37:19;4.33;;;1.70;;
1136;SDS011;557;48.466;7.950;2023-11-21T06:39:48;4.60;;;2.20;;
1136;SDS011;557;48.466;7.950;2023-11-21T06:42:16;5.40;;;1.80;;
1136;SDS011;557;48.466;7.950;2023-11-21T06:44:44;3.27;;;1.90;;
1136;SDS011;557;48.466;7.950;2023-11-21T06:47:11;3.70;;;1.90;;
1136;SDS011;557;48.466;7.950;2023-11-21T06:49:38;3.73;;;2.07;;
1136;SDS011;557;48.466;7.950;2023-11-21T06:52:05;3.87;;;2.37;;
1136;SDS011;557;48.466;7.950;2023-11-21T06:54:31;4.13;;;2.20;;
1136;SDS011;557;48.466;7.950;2023-11-21T06:56:59;3.50;;;2.70;;
1136;SDS011;557;48.466;7.950;2023-11-21T06:59:27;5.93;;;2.50;;
1136;SDS011;557;48.466;7.950;2023-11-21T07:01:55;4.63;;;3.03;;
1136;SDS011;557;48.466;7.950;2023-11-21T07:04:21;5.17;;;2.47;;
1136;SDS011;557;48.466;7.950;2023-11-21T07:06:49;3.73;;;2.40;;
1136;SDS011;557;48.466;7.950;2023-11-21T07:09:16;3.20;;;2.40;;
1136;SDS011;557;48.466;7.950;2023-11-21T07:11:45;3.17;;;2.43;;
1136;SDS011;557;48.466;7.950;2023-11-21T07:14:13;5.07;;;2.60;;
1136;SDS011;557;48.466;7.950;2023-11-21T07:16:41;6.20;;;3.07;;
1136;SDS011;557;48.466;7.950;2023-11-21T07:19:11;6.20;;;3.40;;
1136;SDS011;557;48.466;7.950;2023-11-21T07:21:47;7.40;;;3.50;;
1136;SDS011;557;48.466;7.950;2023-11-21T07:24:15;6.90;;;3.10;;
1136;SDS011;557;48.466;7.950;2023-11-21T07:26:58;3.80;;;2.77;;
1136;SDS011;557;48.466;7.950;2023-11-21T07:29:40;5.17;;;2.70;;
1136;SDS011;557;48.466;7.950;2023-11-21T07:32:08;4.60;;;2.77;;
1136;SDS011;557;48.466;7.950;2023-11-21T07:34:36;5.73;;;3.20;;
1136;SDS011;557;48.466;7.950;2023-11-21T07:37:03;5.03;;;2.60;;
1136;SDS011;557;48.466;7.950;2023-11-21T07:39:30;6.57;;;2.97;;
1136;SDS011;557;48.466;7.950;2023-11-21T07:41:56;4.50;;;3.27;;
1136;SDS011;557;48.466;7.950;2023-11-21T07:44:23;5.20;;;2.57;;
1136;SDS011;557;48.466;7.950;2023-11-21T07:46:51;4.20;;;2.60;;
1136;SDS011;557;48.466;7.950;2023-11-21T07:49:23;5.37;;;2.93;;
1136;SDS011;557;48.466;7.950;2023-11-21T07:51:51;5.27;;;2.60;;
1136;SDS011;557;48.466;7.950;2023-11-21T07:54:18;4.33;;;2.60;;
1136;SDS011;557;48.466;7.950;2023-11-21T07:56:46;7.63;;;3.50;;
1136;SDS011;557;48.466;7.950;2023-11-21T07:59:13;5.20;;;3.17;;
1136;SDS011;557;48.466;7.950;2023-11-21T08:01:40;2.73;;;2.43;;
1136;SDS011;557;48.466;7.950;2023-11-21T08:04:08;3.20;;;2.67;;
1136;SDS011;557;48.466;7.950;2023-11-21T08:06:36;3.47;;;2.60;;
1136;SDS011;557;48.466;7.950;2023-11-21T08:09:03;3.43;;;2.73;;
1136;SDS011;557;48.466;7.950;2023-11-21T08:11:30;3.53;;;2.87;;
1136;SDS011;557;48.466;7.950;2023-11-21T08:13:58;4.50;;;3.40;;
1136;SDS011;557;48.466;7.950;2023-11-21T08:16:25;4.83;;;3.07;;
1136;SDS011;557;48.466;7.950;2023-11-21T08:18:52;3.90;;;3.33;;
1136;SDS011;557;48.466;7.950;2023-11-21T08:21:19;7.40;;;5.17;;
1136;SDS011;557;48.466;7.950;2023-11-21T08:23:50;5.80;;;4.23;;
1136;SDS011;557;48.466;7.950;2023-11-21T08:26:19;13.10;;;9.77;;
1136;SDS011;557;48.466;7.950;2023-11-21T08:28:46;6.13;;;4.57;;
1136;SDS011;557;48.466;7.950;2023-11-21T08:31:23;4.03;;;3.27;;
1136;SDS011;557;48.466;7.950;2023-11-21T08:33:51;5.50;;;4.40;;
1136;SDS011;557;48.466;7.950;2023-11-21T08:36:20;5.37;;;4.10;;
1136;SDS011;557;48.466;7.950;2023-11-21T08:38:49;8.97;;;5.77;;
1136;SDS011;557;48.466;7.950;2023-11-21T08:41:17;9.60;;;6.10;;
1136;SDS011;557;48.466;7.950;2023-11-21T08:43:47;9.37;;;6.30;;
1136;SDS011;557;48.466;7.950;2023-11-21T08:46:14;6.93;;;5.00;;
1136;SDS011;557;48.466;7.950;2023-11-21T08:48:42;11.77;;;4.40;;
1136;SDS011;557;48.466;7.950;2023-11-21T08:51:09;15.77;;;10.50;;
1136;SDS011;557;48.466;7.950;2023-11-21T08:53:37;8.30;;;4.53;;
1136;SDS011;557;48.466;7.950;2023-11-21T08:56:06;20.50;;;14.17;;
1136;SDS011;557;48.466;7.950;2023-11-21T08:58:35;12.10;;;8.83;;
1136;SDS011;557;48.466;7.950;2023-11-21T09:01:02;5.90;;;4.30;;
1136;SDS011;557;48.466;7.950;2023-11-21T09:03:29;7.20;;;6.30;;
1136;SDS011;557;48.466;7.950;2023-11-21T09:05:59;8.37;;;5.00;;
1136;SDS011;557;48.466;7.950;2023-11-21T09:08:25;6.87;;;4.60;;
1136;SDS011;557;48.466;7.950;2023-11-21T09:10:54;11.40;;;4.70;;
1136;SDS011;557;48.466;7.950;2023-11-21T09:13:22;23.03;;;6.43;;
1136;SDS011;557;48.466;7.950;2023-11-21T09:15:51;9.77;;;6.90;;
1136;SDS011;557;48.466;7.950;2023-11-21T09:18:17;7.40;;;4.90;;
1136;SDS011;557;48.466;7.950;2023-11-21T09:20:44;5.20;;;4.20;;
1136;SDS011;557;48.466;7.950;2023-11-21T09:23:11;8.23;;;5.20;;
1136;SDS011;557;48.466;7.950;2023-11-21T09:25:38;6.33;;;5.07;;
1136;SDS011;557;48.466;7.950;2023-11-21T09:28:05;7.10;;;5.30;;
1136;SDS011;557;48.466;7.950;2023-11-21T09:30:35;4.80;;;3.70;;
1136;SDS011;557;48.466;7.950;2023-11-21T09:33:02;6.00;;;4.53;;
1136;SDS011;557;48.466;7.950;2023-11-21T09:35:32;6.83;;;4.63;;
1136;SDS011;557;48.466;7.950;2023-11-21T09:37:59;7.80;;;4.70;;
1136;SDS011;557;48.466;7.950;2023-11-21T09:40:30;7.37;;;4.73;;
1136;SDS011;557;48.466;7.950;2023-11-21T09:42:58;7.40;;;5.23;;
1136;SDS011;557;48.466;7.950;2023-11-21T09:45:25;8.20;;;4.83;;
1136;SDS011;557;48.466;7.950;2023-11-21T09:47:55;6.20;;;3.50;;
1136;SDS011;557;48.466;7.950;2023-11-21T09:50:22;5.63;;;4.63;;
1136;SDS011;557;48.466;7.950;2023-11-21T09:52:54;6.60;;;4.30;;
1136;SDS011;557;48.466;7.950;2023-11-21T09:55:26;7.53;;;5.20;;
1136;SDS011;557;48.466;7.950;2023-11-21T09:57:55;5.33;;;3.37;;
1136;SDS011;557;48.466;7.950;2023-11-21T10:00:22;6.33;;;4.23;;
1136;SDS011;557;48.466;7.950;2023-11-21T10:02:52;4.73;;;4.13;;
1136;SDS011;557;48.466;7.950;2023-11-21T10:05:20;6.30;;;4.00;;
1136;SDS011;557;48.466;7.950;2023-11-21T10:07:48;6.30;;;4.10;;
1136;SDS011;557;48.466;7.950;2023-11-21T10:10:17;6.73;;;4.10;;
1136;SDS011;557;48.466;7.950;2023-11-21T10:12:48;6.47;;;4.40;;
1136;SDS011;557;48.466;7.950;2023-11-21T10:15:18;7.67;;;4.00;;
1136;SDS011;557;48.466;7.950;2023-11-21T10:17:49;6.63;;;4.03;;
1136;SDS011;557;48.466;7.950;2023-11-21T10:20:18;4.90;;;3.20;;
1136;SDS011;557;48.466;7.950;2023-11-21T10:22:48;4.40;;;3.53;;
1136;SDS011;557;48.466;7.950;2023-11-21T10:25:15;7.40;;;5.43;;
1136;SDS011;557;48.466;7.950;2023-11-21T10:27:46;10.40;;;6.60;;
1136;SDS011;557;48.466;7.950;2023-11-21T10:30:16;5.47;;;3.83;;
1136;SDS011;557;48.466;7.950;2023-11-21T10:32:43;7.00;;;4.30;;
1136;SDS011;557;48.466;7.950;2023-11-21T10:35:10;5.20;;;3.53;;
1136;SDS011;557;48.466;7.950;2023-11-21T10:37:38;6.33;;;4.23;;
1136;SDS011;557;48.466;7.950;2023-11-21T10:40:06;6.10;;;3.90;;
1136;SDS011;557;48.466;7.950;2023-11-21T10:42:34;4.83;;;3.93;;
1136;SDS011;557;48.466;7.950;2023-11-21T10:45:01;4.60;;;3.53;;
1136;SDS011;557;48.466;7.950;2023-11-21T10:47:30;6.23;;;4.90;;
1136;SDS011;557;48.466;7.950;2023-11-21T10:49:58;5.53;;;4.70;;
1136;SDS011;557;48.466;7.950;2023-11-21T10:52:27;20.20;;;12.20;;
1136;SDS011;557;48.466;7.950;2023-11-21T10:54:55;22.80;;;14.03;;
1136;SDS011;557;48.466;7.950;2023-11-21T10:57:24;12.33;;;8.00;;
1136;SDS011;557;48.466;7.950;2023-11-21T10:59:51;6.20;;;5.30;;
1136;SDS011;557;48.466;7.950;2023-11-21T11:02:21;6.13;;;4.60;;
1136;SDS011;557;48.466;7.950;2023-11-21T11:04:53;5.00;;;4.13;;
1136;SDS011;557;48.466;7.950;2023-11-21T11:07:21;4.77;;;4.13;;
1136;SDS011;557;48.466;7.950;2023-11-21T11:09:53;6.27;;;5.00;;
1136;SDS011;557;48.466;7.950;2023-11-21T11:12:22;5.40;;;4.47;;
1136;SDS011;557;48.466;7.950;2023-11-21T11:14:49;5.30;;;4.13;;
1136;SDS011;557;48.466;7.950;2023-11-21T11:17:18;8.60;;;5.40;;
1136;SDS011;557;48.466;7.950;2023-11-21T11:19:45;5.97;;;5.33;;
1136;SDS011;557;48.466;7.950;2023-11-21T11:22:16;8.00;;;5.20;;
1136;SDS011;557;48.466;7.950;2023-11-21T11:25:10;7.83;;;6.30;;
1136;SDS011;557;48.466;7.950;2023-11-21T11:28:03;6.63;;;6.00;;
1136;SDS011;557;48.466;7.950;2023-11-21T11:30:37;6.93;;;6.20;;
1136;SDS011;557;48.466;7.950;2023-11-21T11:33:12;9.23;;;6.20;;
1136;SDS011;557;48.466;7.950;2023-11-21T11:35:52;7.00;;;5.83;;
1136;SDS011;557;48.466;7.950;2023-11-21T11:38:23;4.60;;;3.90;;
1136;SDS011;557;48.466;7.950;2023-11-21T11:40:54;4.40;;;3.70;;
1136;SDS011;557;48.466;7.950;2023-11-21T11:43:24;5.63;;;3.80;;
1136;SDS011;557;48.466;7.950;2023-11-21T11:45:51;5.23;;;4.53;;
1136;SDS011;557;48.466;7.950;2023-11-21T11:48:22;4.90;;;3.87;;
1136;SDS011;557;48.466;7.950;2023-11-21T11:51:02;5.00;;;4.27;;
1136;SDS011;557;48.466;7.950;2023-11-21T11:53:33;6.57;;;4.17;;
1136;SDS011;557;48.466;7.950;2023-11-21T11:58:51;5.00;;;3.17;;
1136;SDS011;557;48.466;7.950;2023-11-21T12:01:20;4.47;;;3.47;;
1136;SDS011;557;48.466;7.950;2023-11-21T12:06:59;5.10;;;3.17;;
1136;SDS011;557;48.466;7.950;2023-11-21T12:09:29;4.70;;;3.00;;
1136;SDS011;557;48.466;7.950;2023-11-21T12:11:59;4.23;;;3.83;;
1136;SDS011;557;48.466;7.950;2023-11-21T12:14:26;3.50;;;2.87;;
1136;SDS011;557;48.466;7.950;2023-11-21T12:16:54;4.33;;;3.40;;
1136;SDS011;557;48.466;7.950;2023-11-21T12:19:21;4.83;;;3.47;;
1136;SDS011;557;48.466;7.950;2023-11-21T12:21:49;4.10;;;3.17;;
1136;SDS011;557;48.466;7.950;2023-11-21T12:24:17;5.00;;;3.37;;
1136;SDS011;557;48.466;7.950;2023-11-21T12:26:45;6.83;;;3.80;;
1136;SDS011;557;48.466;7.950;2023-11-21T12:29:13;3.53;;;3.17;;
1136;SDS011;557;48.466;7.950;2023-11-21T12:31:41;4.63;;;3.83;;
1136;SDS011;557;48.466;7.950;2023-11-21T12:34:09;4.33;;;3.10;;
1136;SDS011;557;48.466;7.950;2023-11-21T12:36:37;3.63;;;3.23;;
1136;SDS011;557;48.466;7.950;2023-11-21T12:39:04;4.07;;;3.20;;
1136;SDS011;557;48.466;7.950;2023-11-21T12:41:31;4.93;;;3.50;;
1136;SDS011;557;48.466;7.950;2023-11-21T12:43:58;4.03;;;3.20;;
1136;SDS011;557;48.466;7.950;2023-11-21T12:46:26;6.17;;;3.10;;
1136;SDS011;557;48.466;7.950;2023-11-21T12:48:55;7.33;;;4.30;;
1136;SDS011;557;48.466;7.950;2023-11-21T12:51:23;6.13;;;4.00;;
1136;SDS011;557;48.466;7.950;2023-11-21T12:53:51;3.97;;;3.40;;
1136;SDS011;557;48.466;7.950;2023-11-21T12:56:20;6.10;;;3.90;;
1136;SDS011;557;48.466;7.950;2023-11-21T12:58:58;7.23;;;3.87;;
1136;SDS011;557;48.466;7.950;2023-11-21T13:01:27;4.60;;;3.90;;
1136;SDS011;557;48.466;7.950;2023-11-21T13:03:56;5.10;;;3.67;;
1136;SDS011;557;48.466;7.950;2023-11-21T13:06:24;7.00;;;3.93;;
1136;SDS011;557;48.466;7.950;2023-11-21T13:08:51;4.00;;;3.37;;
1136;SDS011;557;48.466;7.950;2023-11-21T13:11:19;4.87;;;3.83;;
1136;SDS011;557;48.466;7.950;2023-11-21T13:13:45;8.20;;;3.67;;
1136;SDS011;557;48.466;7.950;2023-11-21T13:16:12;6.20;;;4.20;;
1136;SDS011;557;48.466;7.950;2023-11-21T13:18:45;5.00;;;3.73;;
1136;SDS011;557;48.466;7.950;2023-11-21T13:21:11;4.80;;;3.60;;
1136;SDS011;557;48.466;7.950;2023-11-21T13:23:39;5.10;;;4.30;;
1136;SDS011;557;48.466;7.950;2023-11-21T13:26:07;5.97;;;4.00;;
1136;SDS011;557;48.466;7.950;2023-11-21T13:28:35;5.30;;;4.00;;
1136;SDS011;557;48.466;7.950;2023-11-21T13:31:02;4.83;;;3.30;;
1136;SDS011;557;48.466;7.950;2023-11-21T13:33:34;4.60;;;3.63;;
1136;SDS011;557;48.466;7.950;2023-11-21T13:36:05;5.10;;;3.50;;
1136;SDS011;557;48.466;7.950;2023-11-21T13:38:34;4.53;;;3.13;;
1136;SDS011;557;48.466;7.950;2023-11-21T13:41:02;3.60;;;2.60;;
1136;SDS011;557;48.466;7.950;2023-11-21T13:43:32;4.20;;;3.50;;
1136;SDS011;557;48.466;7.950;2023-11-21T13:45:59;3.20;;;2.07;;
1136;SDS011;557;48.466;7.950;2023-11-21T13:48:33;2.60;;;1.80;;
1136;SDS011;557;48.466;7.950;2023-11-21T13:51:08;3.37;;;2.03;;
1136;SDS011;557;48.466;7.950;2023-11-21T13:53:42;3.50;;;2.10;;
1136;SDS011;557;48.466;7.950;2023-11-21T13:56:10;2.73;;;1.97;;
1136;SDS011;557;48.466;7.950;2023-11-21T13:58:41;3.80;;;2.53;;
1136;SDS011;557;48.466;7.950;2023-11-21T14:01:12;3.60;;;3.07;;
1136;SDS011;557;48.466;7.950;2023-11-21T14:03:57;4.07;;;2.80;;
1136;SDS011;557;48.466;7.950;2023-11-21T14:06:34;6.03;;;3.33;;
1136;SDS011;557;48.466;7.950;2023-11-21T14:09:17;6.50;;;2.90;;
1136;SDS011;557;48.466;7.950;2023-11-21T14:11:49;5.43;;;2.90;;
1136;SDS011;557;48.466;7.950;2023-11-21T14:14:17;4.90;;;3.27;;
1136;SDS011;557;48.466;7.950;2023-11-21T14:16:44;5.10;;;3.27;;
1136;SDS011;557;48.466;7.950;2023-11-21T14:19:11;7.70;;;3.50;;
1136;SDS011;557;48.466;7.950;2023-11-21T14:21:43;6.67;;;3.77;;
1136;SDS011;557;48.466;7.950;2023-11-21T14:24:10;6.50;;;3.90;;
1136;SDS011;557;48.466;7.950;2023-11-21T14:26:39;5.10;;;3.60;;
1136;SDS011;557;48.466;7.950;2023-11-21T14:29:07;5.10;;;3.90;;
1136;SDS011;557;48.466;7.950;2023-11-21T14:31:37;5.30;;;3.97;;
1136;SDS011;557;48.466;7.950;2023-11-21T14:34:04;5.63;;;4.20;;
1136;SDS011;557;48.466;7.950;2023-11-21T14:36:32;4.70;;;3.93;;
1136;SDS011;557;48.466;7.950;2023-11-21T14:39:00;5.73;;;3.33;;
1136;SDS011;557;48.466;7.950;2023-11-21T14:41:29;4.83;;;3.33;;
1136;SDS011;557;48.466;7.950;2023-11-21T14:43:56;5.20;;;3.67;;
1136;SDS011;557;48.466;7.950;2023-11-21T14:46:24;8.47;;;6.07;;
1136;SDS011;557;48.466;7.950;2023-11-21T14:48:51;12.03;;;10.30;;
1136;SDS011;557;48.466;7.950;2023-11-21T14:51:32;8.40;;;5.80;;
1136;SDS011;557;48.466;7.950;2023-11-21T14:54:15;8.10;;;7.40;;
1136;SDS011;557;48.466;7.950;2023-11-21T14:56:52;4.53;;;3.87;;
1136;SDS011;557;48.466;7.950;2023-11-21T14:59:18;6.57;;;4.37;;
1136;SDS011;557;48.466;7.950;2023-11-21T15:01:45;4.27;;;3.53;;
1136;SDS011;557;48.466;7.950;2023-11-21T15:04:20;7.00;;;5.43;;
1136;SDS011;557;48.466;7.950;2023-11-21T15:06:56;5.50;;;3.93;;
1136;SDS011;557;48.466;7.950;2023-11-21T15:09:25;6.13;;;4.00;;
1136;SDS011;557;48.466;7.950;2023-11-21T15:12:01;6.93;;;4.10;;
1136;SDS011;557;48.466;7.950;2023-11-21T15:14:37;5.10;;;3.80;;
1136;SDS011;557;48.466;7.950;2023-11-21T15:17:04;5.73;;;4.00;;
1136;SDS011;557;48.466;7.950;2023-11-21T15:19:32;5.17;;;4.67;;
1136;SDS011;557;48.466;7.950;2023-11-21T15:22:00;6.80;;;4.60;;
1136;SDS011;557;48.466;7.950;2023-11-21T15:24:29;6.17;;;4.53;;
1136;SDS011;557;48.466;7.950;2023-11-21T15:26:56;7.83;;;4.90;;
1136;SDS011;557;48.466;7.950;2023-11-21T15:29:23;9.03;;;5.07;;
1136;SDS011;557;48.466;7.950;2023-11-21T15:31:51;7.80;;;5.23;;
1136;SDS011;557;48.466;7.950;2023-11-21T15:34:21;7.57;;;5.23;;
1136;SDS011;557;48.466;7.950;2023-11-21T15:36:48;9.07;;;5.33;;
1136;SDS011;557;48.466;7.950;2023-11-21T15:39:18;8.50;;;6.17;;
1136;SDS011;557;48.466;7.950;2023-11-21T15:41:48;10.83;;;6.00;;
1136;SDS011;557;48.466;7.950;2023-11-21T15:44:15;7.93;;;7.13;;
1136;SDS011;557;48.466;7.950;2023-11-21T15:46:42;6.53;;;4.80;;